Time;durP1;ratioP1;P1;durP2;ratioP2;P2;SDS_P1;SDS_P2;PMS_P1;PMS_P2;Temp;Humidity;BMP_temperature;BMP_pressure;BME280_temperature;BME280_humidity;BME280_pressure;Samples;Min_cycle;Max_cycle;Signal;HPM_P1;HPM_P2
2022/10/12 00:01:05;;;;;;;26.50;16.08;;;;;;;;;;5052936;28;20393;-63
2022/10/12 00:03:32;;;;;;;28.63;17.10;;;;;;;;;;5052931;28;20033;-61
2022/10/12 00:06:01;;;;;;;27.55;17.35;;;;;;;;;;5054085;28;20488;-59
2022/10/12 00:08:28;;;;;;;24.92;16.83;;;;;;;;;;5054940;28;20036;-61
2022/10/12 00:10:54;;;;;;;27.00;17.30;;;;;;;;;;5037094;28;20434;-61
2022/10/12 00:13:20;;;;;;;25.40;16.52;;;;;;;;;;5055210;28;20111;-64
2022/10/12 00:15:46;;;;;;;30.48;17.90;;;;;;;;;;5041207;28;20071;-65
2022/10/12 00:18:12;;;;;;;25.30;18.58;;;;;;;;;;5055647;28;20163;-62
2022/10/12 00:20:38;;;;;;;25.50;17.02;;;;;;;;;;5053570;28;20162;-61
2022/10/12 00:23:04;;;;;;;29.58;17.60;;;;;;;;;;5034479;28;20099;-63
2022/10/12 00:25:30;;;;;;;29.23;17.95;;;;;;;;;;5034721;28;20129;-63
2022/10/12 00:27:56;;;;;;;30.15;17.52;;;;;;;;;;5052471;28;20469;-62
2022/10/12 00:30:22;;;;;;;25.73;17.50;;;;;;;;;;5038362;28;20036;-64
2022/10/12 00:32:48;;;;;;;32.13;19.55;;;;;;;;;;5040944;28;20469;-64
2022/10/12 00:35:14;;;;;;;30.95;17.83;;;;;;;;;;5058619;28;20021;-64
2022/10/12 00:37:40;;;;;;;31.48;18.52;;;;;;;;;;5041010;28;20035;-63
2022/10/12 00:40:06;;;;;;;23.80;16.95;;;;;;;;;;5040977;28;20075;-62
2022/10/12 00:42:32;;;;;;;24.45;16.70;;;;;;;;;;5040869;28;20032;-62
2022/10/12 00:44:58;;;;;;;27.00;17.15;;;;;;;;;;5058581;28;20025;-65
2022/10/12 00:47:29;;;;;;;26.77;17.38;;;;;;;;;;5041031;28;20044;-64
2022/10/12 00:49:55;;;;;;;25.58;17.00;;;;;;;;;;5040857;28;20369;-64
2022/10/12 00:52:24;;;;;;;29.88;18.27;;;;;;;;;;5058605;28;20025;-64
2022/10/12 00:54:50;;;;;;;24.10;16.65;;;;;;;;;;5040605;28;20016;-64
2022/10/12 00:57:17;;;;;;;32.17;17.35;;;;;;;;;;5040797;28;20146;-64
2022/10/12 00:59:45;;;;;;;25.73;16.45;;;;;;;;;;5040459;28;20485;-63
2022/10/12 01:02:12;;;;;;;27.65;16.42;;;;;;;;;;5058445;28;20112;-64
2022/10/12 01:04:38;;;;;;;27.02;16.65;;;;;;;;;;5058377;28;20033;-62
2022/10/12 01:07:04;;;;;;;28.25;16.52;;;;;;;;;;5040763;28;20025;-61
2022/10/12 01:09:30;;;;;;;24.48;16.15;;;;;;;;;;5040886;28;20025;-63
2022/10/12 01:11:57;;;;;;;27.45;16.33;;;;;;;;;;5058537;28;20029;-63
2022/10/12 01:14:23;;;;;;;25.88;16.25;;;;;;;;;;5058318;28;20492;-62
2022/10/12 01:16:56;;;;;;;24.15;16.38;;;;;;;;;;5040680;28;20032;-64
2022/10/12 01:19:38;;;;;;;29.35;17.65;;;;;;;;;;5058003;28;20025;-64
2022/10/12 01:22:08;;;;;;;23.67;16.75;;;;;;;;;;5057986;28;20025;-64
2022/10/12 01:24:51;;;;;;;24.10;15.73;;;;;;;;;;5040128;28;20057;-63
2022/10/12 01:27:17;;;;;;;25.63;14.98;;;;;;;;;;5040478;28;20028;-63
2022/10/12 01:29:49;;;;;;;26.88;18.15;;;;;;;;;;5058122;28;20033;-64
2022/10/12 01:32:19;;;;;;;24.20;15.55;;;;;;;;;;5058329;28;20021;-63
2022/10/12 01:34:52;;;;;;;26.10;15.85;;;;;;;;;;5040016;28;20035;-63
2022/10/12 01:37:23;;;;;;;29.00;17.65;;;;;;;;;;5058268;28;20029;-64
2022/10/12 01:39:53;;;;;;;24.67;16.15;;;;;;;;;;5058162;28;20090;-61
2022/10/12 01:42:25;;;;;;;24.58;16.38;;;;;;;;;;5054875;28;20013;-63
2022/10/12 01:44:51;;;;;;;25.35;16.40;;;;;;;;;;5050700;28;20033;-58
2022/10/12 01:47:17;;;;;;;23.60;15.73;;;;;;;;;;5037600;28;20037;-64
2022/10/12 01:49:43;;;;;;;26.73;16.23;;;;;;;;;;5039633;28;20045;-63
2022/10/12 01:52:25;;;;;;;25.65;15.85;;;;;;;;;;5058786;28;20029;-63
2022/10/12 01:55:00;;;;;;;26.63;15.88;;;;;;;;;;5038457;28;20127;-63
2022/10/12 01:57:29;;;;;;;22.67;15.20;;;;;;;;;;5055634;28;20040;-63
2022/10/12 01:59:58;;;;;;;25.88;15.68;;;;;;;;;;5055446;28;20096;-65
2022/10/12 02:02:29;;;;;;;24.70;15.60;;;;;;;;;;5037689;28;20032;-62
2022/10/12 02:04:59;;;;;;;25.80;17.90;;;;;;;;;;5055290;28;20020;-62
2022/10/12 02:07:31;;;;;;;22.50;15.43;;;;;;;;;;5055472;28;20109;-64
2022/10/12 02:09:58;;;;;;;25.88;15.55;;;;;;;;;;5055578;28;20025;-62
2022/10/12 02:12:25;;;;;;;23.13;15.73;;;;;;;;;;5037404;28;20028;-60
2022/10/12 02:14:55;;;;;;;22.42;14.90;;;;;;;;;;5035361;28;20071;-55
2022/10/12 02:17:22;;;;;;;24.17;14.45;;;;;;;;;;5054945;28;20025;-64
2022/10/12 02:19:50;;;;;;;27.83;15.60;;;;;;;;;;5036243;28;20021;-61
2022/10/12 02:22:16;;;;;;;25.60;17.23;;;;;;;;;;5036473;28;20032;-63
2022/10/12 02:24:45;;;;;;;23.30;14.57;;;;;;;;;;5054840;28;20337;-62
2022/10/12 02:27:14;;;;;;;25.08;15.43;;;;;;;;;;5036820;28;20124;-62
2022/10/12 02:29:39;;;;;;;;;;;;;;;;;;5036972;28;20029;-62
2022/10/12 02:32:12;;;;;;;24.92;15.50;;;;;;;;;;5054684;28;19909;-63
2022/10/12 02:34:44;;;;;;;26.23;15.02;;;;;;;;;;5054249;28;20496;-66
2022/10/12 02:37:36;;;;;;;30.85;15.82;;;;;;;;;;5054490;28;20056;-63
2022/10/12 02:40:08;;;;;;;26.92;14.68;;;;;;;;;;5050528;28;20082;-63
2022/10/12 02:42:36;;;;;;;25.52;14.50;;;;;;;;;;5054423;28;20021;-64
2022/10/12 02:45:05;;;;;;;24.65;14.95;;;;;;;;;;5054002;28;20078;-64
2022/10/12 02:47:32;;;;;;;28.00;16.45;;;;;;;;;;5053836;28;20032;-63
2022/10/12 02:49:59;;;;;;;24.02;14.85;;;;;;;;;;5053833;28;20469;-64
2022/10/12 02:52:25;;;;;;;24.90;15.05;;;;;;;;;;5035764;28;20528;-64
2022/10/12 02:54:51;;;;;;;22.98;15.00;;;;;;;;;;5035570;28;20055;-61
2022/10/12 02:57:17;;;;;;;26.40;15.68;;;;;;;;;;5036402;28;20025;-64
2022/10/12 02:59:43;;;;;;;23.40;15.65;;;;;;;;;;5035830;28;20017;-65
2022/10/12 03:02:09;;;;;;;23.63;14.45;;;;;;;;;;5053714;28;20436;-64
2022/10/12 03:04:36;;;;;;;24.77;14.60;;;;;;;;;;5035863;28;20393;-63
2022/10/12 03:07:02;;;;;;;21.65;14.40;;;;;;;;;;5035795;28;20027;-64
2022/10/12 03:09:28;;;;;;;26.60;14.88;;;;;;;;;;5053332;28;20033;-63
2022/10/12 03:11:54;;;;;;;23.73;15.25;;;;;;;;;;5053421;28;20507;-61
2022/10/12 03:14:21;;;;;;;25.40;15.35;;;;;;;;;;5035559;28;20028;-64
2022/10/12 03:16:47;;;;;;;22.52;15.65;;;;;;;;;;5053323;28;20028;-61
2022/10/12 03:19:14;;;;;;;27.67;15.77;;;;;;;;;;5035170;28;20429;-63
2022/10/12 03:21:40;;;;;;;25.42;15.35;;;;;;;;;;5052905;28;20021;-63
2022/10/12 03:24:06;;;;;;;24.27;15.90;;;;;;;;;;5053321;28;20067;-64
2022/10/12 03:26:33;;;;;;;24.63;15.43;;;;;;;;;;5055909;28;20025;-63
2022/10/12 03:28:59;;;;;;;23.02;14.85;;;;;;;;;;5054424;28;20024;-63
2022/10/12 03:31:25;;;;;;;23.50;15.35;;;;;;;;;;5053627;28;20040;-64
2022/10/12 03:33:51;;;;;;;25.35;15.07;;;;;;;;;;5034998;28;20037;-62
2022/10/12 03:36:17;;;;;;;23.52;14.80;;;;;;;;;;5035101;28;20048;-64
2022/10/12 03:38:43;;;;;;;27.52;15.00;;;;;;;;;;5035273;28;20025;-64
2022/10/12 03:41:10;;;;;;;25.00;15.23;;;;;;;;;;5052744;28;20068;-64
2022/10/12 03:43:36;;;;;;;23.98;14.85;;;;;;;;;;5034781;28;20025;-62
2022/10/12 03:46:02;;;;;;;24.17;14.35;;;;;;;;;;5034713;28;20048;-64
2022/10/12 03:48:28;;;;;;;23.20;15.07;;;;;;;;;;5052721;28;20228;-60
2022/10/12 03:50:54;;;;;;;24.90;15.30;;;;;;;;;;5052602;28;20051;-63
2022/10/12 03:53:20;;;;;;;24.30;15.23;;;;;;;;;;5052565;28;20028;-63
2022/10/12 03:55:46;;;;;;;23.85;15.40;;;;;;;;;;5034756;28;20256;-61
2022/10/12 03:58:13;;;;;;;22.23;15.18;;;;;;;;;;5034640;28;20052;-64
2022/10/12 04:00:39;;;;;;;28.15;15.95;;;;;;;;;;5052880;28;20052;-64
2022/10/12 04:03:05;;;;;;;24.80;16.40;;;;;;;;;;5034048;28;20473;-60
2022/10/12 04:05:31;;;;;;;24.60;16.25;;;;;;;;;;5052011;28;20021;-59
2022/10/12 04:07:57;;;;;;;23.92;15.45;;;;;;;;;;5035195;28;20029;-63
2022/10/12 04:10:23;;;;;;;24.67;15.35;;;;;;;;;;5052682;28;20150;-63
2022/10/12 04:12:49;;;;;;;23.10;15.30;;;;;;;;;;5052751;28;20021;-59
2022/10/12 04:15:17;;;;;;;24.88;15.60;;;;;;;;;;5034372;28;20021;-64
2022/10/12 04:17:43;;;;;;;33.60;17.08;;;;;;;;;;5052783;28;20025;-64
2022/10/12 04:20:09;;;;;;;26.42;17.55;;;;;;;;;;5052611;28;20025;-63
2022/10/12 04:22:35;;;;;;;25.45;16.00;;;;;;;;;;5034963;28;20127;-59
2022/10/12 04:25:01;;;;;;;22.45;15.88;;;;;;;;;;5052712;28;20469;-63
2022/10/12 04:27:27;;;;;;;27.48;16.88;;;;;;;;;;5034827;28;20052;-62
2022/10/12 04:32:27;;;;;;;22.80;16.20;;;;;;;;;;5065373;22;20103;-65
2022/10/12 04:34:53;;;;;;;25.48;16.98;;;;;;;;;;5049467;28;20030;-66
2022/10/12 04:37:19;;;;;;;22.83;16.52;;;;;;;;;;5049924;28;20025;-66
2022/10/12 04:39:45;;;;;;;26.17;17.58;;;;;;;;;;5050260;28;20433;-67
2022/10/12 04:42:11;;;;;;;26.17;17.77;;;;;;;;;;5030002;28;20036;-66
2022/10/12 04:44:37;;;;;;;29.10;17.30;;;;;;;;;;5031541;28;20029;-67
2022/10/12 04:47:03;;;;;;;26.35;17.02;;;;;;;;;;5050020;28;20400;-65
2022/10/12 04:49:29;;;;;;;28.38;17.90;;;;;;;;;;5049929;28;20028;-64
2022/10/12 04:51:55;;;;;;;22.35;16.58;;;;;;;;;;5050020;28;20021;-65
2022/10/12 04:54:21;;;;;;;27.60;17.25;;;;;;;;;;5049950;28;20159;-65
2022/10/12 04:56:47;;;;;;;23.92;16.38;;;;;;;;;;5050060;28;20088;-65
2022/10/12 04:59:13;;;;;;;25.85;18.00;;;;;;;;;;5050059;28;20481;-65
2022/10/12 05:01:39;;;;;;;23.98;17.33;;;;;;;;;;5049968;28;20083;-64
2022/10/12 05:04:05;;;;;;;30.88;16.77;;;;;;;;;;5032110;28;20032;-64
2022/10/12 05:06:31;;;;;;;25.02;16.60;;;;;;;;;;5050094;28;20025;-63
2022/10/12 05:08:57;;;;;;;29.08;16.00;;;;;;;;;;5049918;28;20056;-65
2022/10/12 05:11:23;;;;;;;23.27;16.42;;;;;;;;;;5049878;28;20021;-64
2022/10/12 05:13:49;;;;;;;25.27;16.67;;;;;;;;;;5031534;28;20393;-64
2022/10/12 05:16:15;;;;;;;26.80;16.52;;;;;;;;;;5051531;28;20028;-63
2022/10/12 05:18:41;;;;;;;28.45;16.30;;;;;;;;;;5054281;28;20017;-65
2022/10/12 05:21:07;;;;;;;25.88;16.50;;;;;;;;;;5053771;28;20191;-65
2022/10/12 05:23:33;;;;;;;22.42;16.13;;;;;;;;;;5053955;28;20103;-65
2022/10/12 05:25:59;;;;;;;27.48;16.90;;;;;;;;;;5054014;28;20457;-65
2022/10/12 05:28:25;;;;;;;24.67;15.88;;;;;;;;;;5036031;28;20036;-64
2022/10/12 05:30:52;;;;;;;25.33;16.15;;;;;;;;;;5053748;28;20059;-66
2022/10/12 05:33:18;;;;;;;28.30;16.15;;;;;;;;;;5035161;28;20035;-65
2022/10/12 05:35:44;;;;;;;26.90;16.77;;;;;;;;;;5054027;28;20021;-64
2022/10/12 05:38:10;;;;;;;26.30;17.70;;;;;;;;;;5053356;28;20029;-65
2022/10/12 05:40:36;;;;;;;28.23;17.98;;;;;;;;;;5035246;28;20056;-64
2022/10/12 05:43:03;;;;;;;25.05;16.85;;;;;;;;;;5052708;28;20052;-63
2022/10/12 05:45:29;;;;;;;25.60;16.25;;;;;;;;;;5053469;28;20427;-64
2022/10/12 05:47:54;;;;;;;25.95;16.77;;;;;;;;;;5053092;28;20116;-65
2022/10/12 05:50:20;;;;;;;25.05;16.60;;;;;;;;;;5053222;28;20025;-64
2022/10/12 05:52:47;;;;;;;32.28;18.75;;;;;;;;;;5053044;28;20025;-65
2022/10/12 05:55:13;;;;;;;26.45;16.48;;;;;;;;;;5052786;28;20029;-61
2022/10/12 05:57:39;;;;;;;27.27;16.17;;;;;;;;;;5053009;28;20032;-65
2022/10/12 06:00:07;;;;;;;23.92;17.17;;;;;;;;;;5052848;28;20021;-67
2022/10/12 06:02:33;;;;;;;27.15;17.63;;;;;;;;;;5053234;28;20017;-67
2022/10/12 06:04:59;;;;;;;26.20;17.30;;;;;;;;;;5052648;28;20041;-67
2022/10/12 06:07:26;;;;;;;24.90;17.23;;;;;;;;;;5052988;28;20393;-67
2022/10/12 06:09:52;;;;;;;28.35;17.33;;;;;;;;;;5052299;28;20043;-66
2022/10/12 06:12:18;;;;;;;28.50;17.90;;;;;;;;;;5052613;28;20477;-67
2022/10/12 06:14:44;;;;;;;26.80;16.90;;;;;;;;;;5052405;28;20045;-66
2022/10/12 06:17:10;;;;;;;26.73;17.40;;;;;;;;;;5052468;28;20025;-68
2022/10/12 06:19:36;;;;;;;29.55;17.15;;;;;;;;;;5034554;28;20029;-67
2022/10/12 06:22:02;;;;;;;27.85;17.42;;;;;;;;;;5052610;28;20013;-67
2022/10/12 06:24:28;;;;;;;26.48;16.63;;;;;;;;;;5052131;28;20033;-67
2022/10/12 06:26:54;;;;;;;30.48;16.80;;;;;;;;;;5051931;28;20033;-66
2022/10/12 06:29:22;;;;;;;28.60;17.77;;;;;;;;;;5052341;28;20029;-67
2022/10/12 06:31:49;;;;;;;31.17;17.27;;;;;;;;;;5034658;28;20092;-67
2022/10/12 06:34:15;;;;;;;50.25;21.20;;;;;;;;;;5052771;28;20098;-67
2022/10/12 06:36:41;;;;;;;33.22;18.83;;;;;;;;;;5054784;28;20017;-66
2022/10/12 06:39:08;;;;;;;24.38;16.73;;;;;;;;;;5058089;28;20031;-67
2022/10/12 06:41:34;;;;;;;25.80;17.15;;;;;;;;;;5052947;28;20034;-66
2022/10/12 06:44:00;;;;;;;28.02;16.98;;;;;;;;;;5043930;28;20045;-67
2022/10/12 06:46:26;;;;;;;27.80;17.60;;;;;;;;;;5032136;28;20171;-67
2022/10/12 06:48:52;;;;;;;25.70;17.15;;;;;;;;;;5032367;28;20108;-67
2022/10/12 06:51:18;;;;;;;25.13;16.52;;;;;;;;;;5032466;28;20018;-66
2022/10/12 06:53:44;;;;;;;27.65;17.67;;;;;;;;;;5032179;28;20030;-67
2022/10/12 06:56:11;;;;;;;27.60;16.75;;;;;;;;;;5032300;28;20018;-67
2022/10/12 06:58:37;;;;;;;27.10;17.23;;;;;;;;;;5032324;28;20024;-67
2022/10/12 07:01:09;;;;;;;24.83;15.90;;;;;;;;;;5032197;28;20126;-67
2022/10/12 07:03:35;;;;;;;31.73;16.75;;;;;;;;;;5031948;28;20026;-66
2022/10/12 07:06:11;;;;;;;29.88;16.40;;;;;;;;;;5032060;28;20029;-67
2022/10/12 07:08:37;;;;;;;40.65;18.35;;;;;;;;;;5031972;28;20052;-66
2022/10/12 07:11:04;;;;;;;30.88;16.95;;;;;;;;;;5031694;28;20030;-66
2022/10/12 07:13:31;;;;;;;32.00;15.50;;;;;;;;;;5031688;28;20033;-67
2022/10/12 07:15:57;;;;;;;27.98;15.82;;;;;;;;;;5031530;28;20028;-67
2022/10/12 07:18:23;;;;;;;28.63;16.33;;;;;;;;;;5031332;28;20032;-66
2022/10/12 07:20:49;;;;;;;30.33;15.98;;;;;;;;;;5031206;28;20043;-68
2022/10/12 07:23:16;;;;;;;31.98;16.05;;;;;;;;;;5030052;28;20041;-67
2022/10/12 07:25:47;;;;;;;29.25;15.57;;;;;;;;;;5031689;28;20113;-66
2022/10/12 07:28:13;;;;;;;32.20;15.23;;;;;;;;;;5030940;28;20032;-66
2022/10/12 07:30:39;;;;;;;25.10;15.43;;;;;;;;;;5030900;28;20034;-66
2022/10/12 07:33:05;;;;;;;29.45;14.73;;;;;;;;;;5030992;28;20318;-68
2022/10/12 07:35:31;;;;;;;26.80;14.02;;;;;;;;;;5013376;28;20079;-67
2022/10/12 07:37:57;;;;;;;27.23;13.90;;;;;;;;;;5030814;28;20029;-67
2022/10/12 07:40:25;;;;;;;26.95;14.73;;;;;;;;;;5029676;28;20141;-68
2022/10/12 07:42:51;;;;;;;28.80;14.90;;;;;;;;;;5013046;28;20017;-66
2022/10/12 07:45:17;;;;;;;25.05;14.20;;;;;;;;;;5012777;28;20037;-67
2022/10/12 07:47:43;;;;;;;24.50;14.25;;;;;;;;;;5012745;28;20022;-66
2022/10/12 07:50:09;;;;;;;24.23;14.63;;;;;;;;;;5030619;28;20155;-66
2022/10/12 07:52:36;;;;;;;25.88;15.02;;;;;;;;;;5030877;28;20440;-66
2022/10/12 07:55:02;;;;;;;29.40;17.13;;;;;;;;;;5030419;28;20025;-66
2022/10/12 07:57:28;;;;;;;31.60;14.60;;;;;;;;;;5030710;28;20202;-67
2022/10/12 07:59:54;;;;;;;24.00;14.18;;;;;;;;;;5030770;28;20024;-68
2022/10/12 08:02:20;;;;;;;58.95;35.70;;;;;;;;;;5030568;28;20039;-66
2022/10/12 08:04:46;;;;;;;30.30;17.35;;;;;;;;;;5030367;28;20105;-67
2022/10/12 08:07:12;;;;;;;30.60;16.77;;;;;;;;;;5030606;28;20036;-66
2022/10/12 08:09:39;;;;;;;29.25;16.08;;;;;;;;;;5012822;28;20400;-66
2022/10/12 08:12:05;;;;;;;24.60;13.82;;;;;;;;;;5012550;28;20053;-67
2022/10/12 08:14:32;;;;;;;28.85;17.45;;;;;;;;;;5030346;28;20033;-68
2022/10/12 08:16:58;;;;;;;31.25;18.50;;;;;;;;;;5030830;28;20021;-68
2022/10/12 08:19:24;;;;;;;26.77;14.48;;;;;;;;;;5036095;28;20362;-70
2022/10/12 08:21:51;;;;;;;28.15;16.58;;;;;;;;;;5060062;28;20025;-70
2022/10/12 08:24:17;;;;;;;25.05;14.20;;;;;;;;;;5034011;28;20033;-69
2022/10/12 08:26:43;;;;;;;27.25;15.63;;;;;;;;;;5032774;28;20029;-68
2022/10/12 08:29:10;;;;;;;26.55;14.85;;;;;;;;;;5050141;28;20489;-69
2022/10/12 08:31:36;;;;;;;25.52;14.90;;;;;;;;;;5050271;28;20412;-68
2022/10/12 08:34:03;;;;;;;29.52;13.85;;;;;;;;;;5049872;28;20439;-69
2022/10/12 08:36:29;;;;;;;28.92;15.60;;;;;;;;;;5032083;28;20055;-70
2022/10/12 08:38:55;;;;;;;23.08;13.70;;;;;;;;;;5049826;28;20101;-69
2022/10/12 08:41:21;;;;;;;26.35;14.88;;;;;;;;;;5049632;28;20108;-69
2022/10/12 08:44:02;;;;;;;22.42;13.48;;;;;;;;;;5049317;28;20059;-63
2022/10/12 08:46:29;;;;;;;22.48;14.77;;;;;;;;;;5049635;28;20064;-67
2022/10/12 08:49:00;;;;;;;23.83;13.25;;;;;;;;;;5048875;28;20072;-68
2022/10/12 08:51:28;;;;;;;29.85;15.02;;;;;;;;;;5051868;28;20020;-68
2022/10/12 08:54:01;;;;;;;22.92;13.52;;;;;;;;;;5053064;28;20052;-65
2022/10/12 08:56:27;;;;;;;24.02;14.05;;;;;;;;;;5053684;28;20354;-67
2022/10/12 08:58:54;;;;;;;25.17;14.25;;;;;;;;;;5053978;28;20029;-64
2022/10/12 09:01:20;;;;;;;21.40;12.60;;;;;;;;;;5054116;28;20031;-67
2022/10/12 09:03:52;;;;;;;28.60;12.98;;;;;;;;;;5053968;28;20025;-65
2022/10/12 09:06:19;;;;;;;21.55;12.95;;;;;;;;;;5036345;28;20372;-66
2022/10/12 09:08:57;;;;;;;20.10;12.27;;;;;;;;;;5053981;28;20341;-65
2022/10/12 09:11:28;;;;;;;26.05;13.02;;;;;;;;;;5053257;28;20032;-65
2022/10/12 09:14:02;;;;;;;26.92;13.98;;;;;;;;;;5052920;28;21148;-68
2022/10/12 09:16:30;;;;;;;21.50;13.15;;;;;;;;;;5053636;28;20035;-67
2022/10/12 09:18:58;;;;;;;19.38;12.43;;;;;;;;;;5053439;28;20049;-64
2022/10/12 09:21:26;;;;;;;21.05;12.30;;;;;;;;;;5053036;28;20013;-65
2022/10/12 09:23:52;;;;;;;19.42;12.98;;;;;;;;;;5052837;28;20346;-63
2022/10/12 09:26:19;;;;;;;21.13;13.13;;;;;;;;;;5053283;28;20041;-63
2022/10/12 09:28:47;;;;;;;19.25;12.43;;;;;;;;;;5053250;28;20033;-64
2022/10/12 09:31:23;;;;;;;23.38;12.57;;;;;;;;;;5052788;28;20176;-65
2022/10/12 09:34:07;;;;;;;20.52;12.52;;;;;;;;;;5053391;28;20151;-66
2022/10/12 09:36:35;;;;;;;22.45;13.25;;;;;;;;;;5053204;28;20021;-66
2022/10/12 09:39:03;;;;;;;21.25;11.60;;;;;;;;;;5053093;28;20502;-64
2022/10/12 09:41:34;;;;;;;22.20;12.88;;;;;;;;;;5052952;28;20083;-65
2022/10/12 09:44:01;;;;;;;21.77;11.98;;;;;;;;;;5034253;28;20099;-66
2022/10/12 09:46:36;;;;;;;18.65;12.30;;;;;;;;;;5052571;28;20021;-67
2022/10/12 09:49:02;;;;;;;22.23;11.82;;;;;;;;;;5052257;28;20024;-65
2022/10/12 09:51:29;;;;;;;20.48;11.70;;;;;;;;;;5052134;28;20035;-65
2022/10/12 09:54:02;;;;;;;21.25;12.85;;;;;;;;;;5052221;28;20079;-64
2022/10/12 09:56:38;;;;;;;21.45;12.45;;;;;;;;;;5052424;28;20025;-65
2022/10/12 09:59:06;;;;;;;25.98;12.52;;;;;;;;;;5052389;28;20040;-65
2022/10/12 10:01:33;;;;;;;22.77;13.48;;;;;;;;;;5052571;28;20032;-66
2022/10/12 10:04:07;;;;;;;22.10;12.55;;;;;;;;;;5052079;28;20150;-65
2022/10/12 10:06:34;;;;;;;21.60;12.93;;;;;;;;;;5034691;28;20078;-64
2022/10/12 10:09:00;;;;;;;22.95;11.90;;;;;;;;;;5054109;28;20100;-65
2022/10/12 10:11:29;;;;;;;21.40;11.93;;;;;;;;;;5052281;28;20041;-66
2022/10/12 10:13:56;;;;;;;19.20;12.45;;;;;;;;;;5056365;28;20155;-65
2022/10/12 10:16:24;;;;;;;24.13;12.68;;;;;;;;;;5051674;28;20025;-65
2022/10/12 10:18:55;;;;;;;19.58;11.73;;;;;;;;;;5067588;28;20070;-67
2022/10/12 10:21:26;;;;;;;20.17;12.00;;;;;;;;;;5043546;28;20035;-65
2022/10/12 10:23:57;;;;;;;18.40;11.60;;;;;;;;;;5054052;28;20033;-64
2022/10/12 10:26:24;;;;;;;20.42;12.48;;;;;;;;;;5052081;28;20043;-64
2022/10/12 10:28:56;;;;;;;20.98;11.52;;;;;;;;;;5034163;28;20060;-64
2022/10/12 10:31:26;;;;;;;22.20;12.57;;;;;;;;;;5067611;22;20045;-58
2022/10/12 10:34:12;;;;;;;18.75;12.10;;;;;;;;;;5050842;28;20421;-61
2022/10/12 10:36:49;;;;;;;20.95;11.45;;;;;;;;;;5053044;28;20095;-59
2022/10/12 10:39:17;;;;;;;20.52;12.23;;;;;;;;;;5052118;28;20021;-60
2022/10/12 10:41:43;;;;;;;19.60;12.10;;;;;;;;;;5051983;28;20025;-61
2022/10/12 10:44:28;;;;;;;21.00;11.68;;;;;;;;;;5044454;28;20101;-60
2022/10/12 10:46:56;;;;;;;22.33;12.32;;;;;;;;;;5033203;28;20025;-61
2022/10/12 10:49:33;;;;;;;18.10;12.32;;;;;;;;;;5043862;28;20032;-61
2022/10/12 10:51:59;;;;;;;18.38;12.60;;;;;;;;;;5043682;28;20436;-60
2022/10/12 10:54:27;;;;;;;17.17;11.40;;;;;;;;;;5032435;28;20022;-60
2022/10/12 10:57:00;;;;;;;23.88;12.25;;;;;;;;;;5049222;28;20017;-63
2022/10/12 10:59:26;;;;;;;22.25;12.15;;;;;;;;;;5041120;28;20101;-61
2022/10/12 11:01:57;;;;;;;18.55;11.63;;;;;;;;;;5032015;28;20064;-60
2022/10/12 11:04:32;;;;;;;22.98;12.13;;;;;;;;;;5032757;28;20036;-60
2022/10/12 11:07:01;;;;;;;20.20;12.20;;;;;;;;;;5031696;28;20021;-62
2022/10/12 11:09:29;;;;;;;18.65;12.20;;;;;;;;;;5031850;28;20129;-60
2022/10/12 11:11:59;;;;;;;20.33;12.27;;;;;;;;;;5033227;28;20430;-65
2022/10/12 11:14:27;;;;;;;21.20;12.40;;;;;;;;;;5031277;28;20057;-59
2022/10/12 11:17:23;;;;;;;19.25;12.63;;;;;;;;;;5032705;28;20029;-63
2022/10/12 11:19:49;;;;;;;19.45;12.25;;;;;;;;;;5023739;28;20413;-60
2022/10/12 11:22:24;;;;;;;19.17;12.95;;;;;;;;;;5032744;28;20026;-61
2022/10/12 11:24:57;;;;;;;20.38;12.52;;;;;;;;;;5032279;28;20029;-60
2022/10/12 11:27:25;;;;;;;20.05;12.80;;;;;;;;;;5032248;28;20124;-55
2022/10/12 11:29:53;;;;;;;;;;;;;;;;;;5034250;28;20100;-69
2022/10/12 11:32:28;;;;;;;19.05;12.77;;;;;;;;;;5041434;28;19921;-62
2022/10/12 11:34:57;;;;;;;18.00;12.63;;;;;;;;;;5051706;28;20029;-62
2022/10/12 11:37:26;;;;;;;17.85;12.50;;;;;;;;;;5039290;28;20059;-61
2022/10/12 11:39:53;;;;;;;19.85;13.23;;;;;;;;;;5032600;28;20425;-64
2022/10/12 11:42:28;;;;;;;18.80;12.70;;;;;;;;;;5032477;28;20028;-64
2022/10/12 11:44:55;;;;;;;18.85;14.30;;;;;;;;;;5032217;28;20347;-62
2022/10/12 11:47:30;;;;;;;20.40;12.80;;;;;;;;;;5030054;28;20025;-62
2022/10/12 11:50:02;;;;;;;19.58;13.60;;;;;;;;;;5031091;28;20065;-63
2022/10/12 11:52:35;;;;;;;19.60;13.13;;;;;;;;;;5030456;28;20021;-64
2022/10/12 11:55:07;;;;;;;20.02;13.60;;;;;;;;;;5030830;28;20431;-65
2022/10/12 11:57:35;;;;;;;17.35;12.82;;;;;;;;;;5030464;28;20116;-64
2022/10/12 12:00:04;;;;;;;19.02;13.20;;;;;;;;;;5031109;28;20018;-64
2022/10/12 12:02:30;;;;;;;18.85;12.95;;;;;;;;;;5032303;28;20036;-59
2022/10/12 12:04:57;;;;;;;20.08;13.10;;;;;;;;;;5032251;28;20029;-61
2022/10/12 12:07:41;;;;;;;18.83;13.00;;;;;;;;;;5032484;28;20111;-65
2022/10/12 12:10:26;;;;;;;20.27;13.70;;;;;;;;;;5032744;28;20501;-65
2022/10/12 12:13:13;;;;;;;19.70;12.75;;;;;;;;;;5032547;28;20510;-63
2022/10/12 12:16:00;;;;;;;20.45;12.00;;;;;;;;;;5032597;28;20434;-64
2022/10/12 12:18:32;;;;;;;21.08;13.95;;;;;;;;;;5001685;28;20033;-65
2022/10/12 12:21:01;;;;;;;22.58;13.52;;;;;;;;;;5032130;28;20048;-63
2022/10/12 12:23:41;;;;;;;19.23;13.07;;;;;;;;;;5030626;28;20029;-63
2022/10/12 12:26:10;;;;;;;19.40;13.75;;;;;;;;;;5029101;28;20022;-61
2022/10/12 12:28:40;;;;;;;20.50;13.98;;;;;;;;;;5031517;28;20060;-63
2022/10/12 12:31:17;;;;;;;18.98;13.05;;;;;;;;;;5030969;28;20489;-63
2022/10/12 12:33:46;;;;;;;20.45;13.18;;;;;;;;;;5030879;28;20029;-63
2022/10/12 12:36:26;;;;;;;19.08;13.88;;;;;;;;;;5031759;28;20030;-64
2022/10/12 12:38:52;;;;;;;22.17;13.60;;;;;;;;;;5032211;28;20033;-61
2022/10/12 12:41:20;;;;;;;19.25;13.27;;;;;;;;;;5030607;28;20113;-63
2022/10/12 12:43:59;;;;;;;18.95;12.73;;;;;;;;;;5031240;28;20018;-62
2022/10/12 12:46:45;;;;;;;18.67;13.52;;;;;;;;;;5029436;28;20129;-62
2022/10/12 12:49:30;;;;;;;21.45;13.40;;;;;;;;;;5029568;28;20401;-63
2022/10/12 12:51:56;;;;;;;18.55;12.95;;;;;;;;;;5031081;28;20029;-62
2022/10/12 12:54:23;;;;;;;17.83;12.82;;;;;;;;;;5030913;28;20104;-62
2022/10/12 12:56:52;;;;;;;18.05;12.43;;;;;;;;;;5030984;28;20462;-62
2022/10/12 12:59:33;;;;;;;21.75;13.48;;;;;;;;;;5030115;28;20034;-63
2022/10/12 13:02:02;;;;;;;19.40;13.00;;;;;;;;;;5031373;28;20079;-63
2022/10/12 13:04:47;;;;;;;19.42;12.63;;;;;;;;;;5030570;28;20072;-62
2022/10/12 13:07:32;;;;;;;19.83;12.43;;;;;;;;;;5030312;28;20029;-60
2022/10/12 13:10:16;;;;;;;20.75;11.93;;;;;;;;;;5031811;28;20060;-62
2022/10/12 13:12:58;;;;;;;17.25;11.80;;;;;;;;;;5029869;28;20103;-60
2022/10/12 13:15:27;;;;;;;17.80;11.68;;;;;;;;;;5029516;28;20056;-61
2022/10/12 13:18:18;;;;;;;20.30;12.80;;;;;;;;;;5031218;28;20025;-62
2022/10/12 13:20:46;;;;;;;17.13;12.20;;;;;;;;;;5030794;28;20025;-60
2022/10/12 13:23:15;;;;;;;19.90;12.13;;;;;;;;;;5029714;28;20021;-61
2022/10/12 13:25:47;;;;;;;16.83;11.80;;;;;;;;;;5031285;28;20271;-61
2022/10/12 13:28:15;;;;;;;17.25;12.35;;;;;;;;;;5031500;28;20481;-64
2022/10/12 13:30:44;;;;;;;17.58;11.73;;;;;;;;;;5031186;28;20033;-61
2022/10/12 13:33:10;;;;;;;19.98;12.93;;;;;;;;;;5030001;28;20041;-63
2022/10/12 13:35:36;;;;;;;19.48;12.30;;;;;;;;;;5031245;28;20032;-65
2022/10/12 13:38:05;;;;;;;19.50;13.38;;;;;;;;;;5033010;28;20017;-62
2022/10/12 13:40:36;;;;;;;18.02;12.20;;;;;;;;;;5035044;28;20112;-64
2022/10/12 13:43:19;;;;;;;20.48;13.02;;;;;;;;;;5034419;28;20025;-59
2022/10/12 13:45:45;;;;;;;21.25;12.65;;;;;;;;;;5033109;28;20524;-58
2022/10/12 13:48:17;;;;;;;18.98;12.35;;;;;;;;;;5034742;28;20032;-61
2022/10/12 13:50:50;;;;;;;18.02;12.77;;;;;;;;;;5034223;28;20663;-62
2022/10/12 13:53:16;;;;;;;18.40;12.65;;;;;;;;;;5034106;28;20025;-61
2022/10/12 13:55:42;;;;;;;19.05;13.05;;;;;;;;;;5032938;28;20036;-60
2022/10/12 13:58:22;;;;;;;20.27;13.20;;;;;;;;;;5034596;28;20068;-62
2022/10/12 14:00:48;;;;;;;19.65;12.70;;;;;;;;;;5034377;28;20026;-62
2022/10/12 14:03:14;;;;;;;20.52;13.02;;;;;;;;;;5034385;28;20025;-61
2022/10/12 14:05:44;;;;;;;23.67;13.27;;;;;;;;;;5033927;28;20527;-64
2022/10/12 14:08:13;;;;;;;19.42;12.75;;;;;;;;;;5032757;28;20037;-64
2022/10/12 14:10:40;;;;;;;19.77;13.45;;;;;;;;;;5033405;28;20063;-61
2022/10/12 14:13:11;;;;;;;17.85;13.57;;;;;;;;;;5033457;28;20049;-61
2022/10/12 14:15:39;;;;;;;19.55;13.15;;;;;;;;;;5031877;28;20033;-60
2022/10/12 14:18:25;;;;;;;17.73;12.23;;;;;;;;;;5033456;28;20393;-61
2022/10/12 14:20:51;;;;;;;19.35;13.20;;;;;;;;;;5033396;28;20030;-63
2022/10/12 14:23:20;;;;;;;18.92;13.05;;;;;;;;;;5033545;28;20017;-61
2022/10/12 14:25:53;;;;;;;17.38;12.88;;;;;;;;;;5032060;28;20028;-62
2022/10/12 14:28:39;;;;;;;28.17;13.35;;;;;;;;;;5033265;28;20033;-61
2022/10/12 14:31:05;;;;;;;22.65;13.45;;;;;;;;;;5033017;28;20036;-62